createdAt,value
2023-09-21T00:00:06.783Z,607.79
2023-09-21T00:00:16.790Z,607.78
2023-09-21T00:00:26.760Z,607.85
2023-09-21T00:00:36.751Z,607.85
2023-09-21T00:00:46.751Z,607.86
2023-09-21T00:00:56.753Z,607.85
2023-09-21T00:01:06.756Z,607.80
2023-09-21T00:01:16.939Z,607.86
2023-09-21T00:01:26.784Z,607.83
2023-09-21T00:01:36.788Z,607.79
2023-09-21T00:01:46.804Z,607.84
2023-09-21T00:01:56.814Z,607.90
2023-09-21T00:02:06.779Z,607.87
2023-09-21T00:02:16.754Z,607.93
2023-09-21T00:02:26.759Z,607.90
2023-09-21T00:02:36.802Z,607.91
2023-09-21T00:02:46.882Z,607.86
2023-09-21T00:03:06.870Z,607.93
2023-09-21T00:03:16.800Z,608.03
2023-09-21T00:03:26.958Z,608.06
2023-09-21T00:03:36.965Z,608.01
2023-09-21T00:03:46.977Z,608.13
2023-09-21T00:03:57.112Z,608.16
2023-09-21T00:04:06.848Z,608.18
2023-09-21T00:04:16.797Z,608.19
2023-09-21T00:04:26.888Z,608.18
2023-09-21T00:04:36.786Z,608.32
2023-09-21T00:04:46.849Z,608.26
2023-09-21T00:04:56.773Z,608.29
2023-09-21T00:05:06.793Z,608.29
2023-09-21T00:05:16.784Z,608.36
2023-09-21T00:05:26.782Z,608.40
2023-09-21T00:05:36.832Z,608.38
2023-09-21T00:05:56.853Z,608.38
2023-09-21T00:06:06.883Z,608.43
2023-09-21T00:06:16.795Z,608.57
2023-09-21T00:06:26.779Z,608.44
2023-09-21T00:06:36.843Z,608.36
2023-09-21T00:06:46.777Z,608.37
2023-09-21T00:06:56.780Z,608.36
2023-09-21T00:07:06.791Z,608.41
2023-09-21T00:07:16.787Z,608.50
2023-09-21T00:07:26.787Z,608.38
2023-09-21T00:07:46.783Z,608.49
2023-09-21T00:07:56.783Z,608.58
2023-09-21T00:08:06.784Z,608.51
2023-09-21T00:08:16.789Z,608.55
2023-09-21T00:08:26.793Z,608.56
2023-09-21T00:08:36.813Z,608.66
2023-09-21T00:08:46.812Z,608.58
2023-09-21T00:08:57.377Z,608.55
2023-09-21T00:09:06.845Z,608.55
2023-09-21T00:09:16.814Z,608.55
2023-09-21T00:09:26.787Z,608.53
2023-09-21T00:09:36.826Z,608.52
2023-09-21T00:09:46.798Z,608.63
2023-09-21T00:10:06.793Z,608.68
2023-09-21T00:10:16.796Z,608.70
2023-09-21T00:10:26.808Z,608.73
2023-09-21T00:10:36.800Z,608.79
2023-09-21T00:10:46.820Z,608.81
2023-09-21T00:10:56.799Z,608.84
2023-09-21T00:11:06.799Z,608.81
2023-09-21T00:11:16.800Z,608.79
2023-09-21T00:11:26.802Z,608.84
2023-09-21T00:11:36.819Z,608.77
2023-09-21T00:11:56.812Z,608.71
2023-09-21T00:12:06.824Z,608.85
2023-09-21T00:12:16.808Z,608.79
2023-09-21T00:12:26.810Z,608.69
2023-09-21T00:12:36.826Z,608.74
2023-09-21T00:12:46.809Z,608.78
2023-09-21T00:12:56.816Z,608.88
2023-09-21T00:13:06.809Z,608.83
2023-09-21T00:13:16.810Z,608.79
2023-09-21T00:13:36.812Z,608.95
2023-09-21T00:13:46.836Z,609.01
2023-09-21T00:13:56.809Z,608.91
2023-09-21T00:14:06.812Z,608.99
2023-09-21T00:14:16.814Z,608.93
2023-09-21T00:14:26.818Z,609.00
2023-09-21T00:14:36.849Z,609.01
2023-09-21T00:14:46.852Z,609.09
2023-09-21T00:14:56.879Z,609.10
2023-09-21T00:15:16.835Z,609.19
2023-09-21T00:15:26.808Z,609.22
2023-09-21T00:15:36.839Z,609.16
2023-09-21T00:15:46.813Z,609.25
2023-09-21T00:15:56.838Z,609.22
2023-09-21T00:16:06.870Z,609.18
2023-09-21T00:16:16.867Z,609.26
2023-09-21T00:16:26.898Z,609.24
2023-09-21T00:16:36.868Z,609.26
2023-09-21T00:16:46.838Z,609.17
2023-09-21T00:16:56.830Z,609.16
2023-09-21T00:17:06.831Z,609.23
2023-09-21T00:17:26.872Z,609.26
2023-09-21T00:17:36.870Z,609.27
2023-09-21T00:17:46.981Z,609.23
2023-09-21T00:17:56.902Z,609.37
2023-09-21T00:18:06.960Z,609.46
2023-09-21T00:18:16.924Z,609.41
2023-09-21T00:18:26.886Z,609.51
2023-09-21T00:18:36.939Z,609.52
2023-09-21T00:18:47.340Z,609.60
2023-09-21T00:19:06.830Z,609.68
2023-09-21T00:19:16.836Z,609.72
2023-09-21T00:19:26.836Z,609.70
2023-09-21T00:19:36.836Z,609.84
2023-09-21T00:19:46.846Z,609.84
2023-09-21T00:19:56.833Z,609.76
2023-09-21T00:20:06.839Z,609.79
2023-09-21T00:20:16.840Z,609.72
2023-09-21T00:20:26.842Z,609.96
2023-09-21T00:20:36.875Z,609.87
2023-09-21T00:20:46.881Z,609.88
2023-09-21T00:20:56.870Z,609.98
2023-09-21T00:21:06.884Z,610.00
2023-09-21T00:21:17.015Z,609.97
2023-09-21T00:21:26.844Z,610.06
2023-09-21T00:21:36.844Z,610.03
2023-09-21T00:21:46.866Z,610.06
2023-09-21T00:21:56.851Z,610.15
2023-09-21T00:22:06.850Z,610.18
2023-09-21T00:22:16.845Z,610.20
2023-09-21T00:22:26.851Z,610.32
2023-09-21T00:22:36.840Z,610.33
2023-09-21T00:22:56.870Z,610.48
2023-09-21T00:23:06.843Z,610.49
2023-09-21T00:23:16.859Z,610.39
2023-09-21T00:23:26.848Z,610.55
2023-09-21T00:23:36.863Z,610.46
2023-09-21T00:23:46.909Z,610.45
2023-09-21T00:24:06.906Z,610.66
2023-09-21T00:24:17.011Z,610.65
2023-09-21T00:24:26.862Z,610.57
2023-09-21T00:24:36.864Z,610.76
2023-09-21T00:24:46.852Z,610.71
2023-09-21T00:24:56.854Z,610.79
2023-09-21T00:25:06.854Z,610.84
2023-09-21T00:25:26.881Z,610.79
2023-09-21T00:25:36.861Z,610.83
2023-09-21T00:25:46.867Z,610.84
2023-09-21T00:25:56.893Z,610.84
2023-09-21T00:26:06.863Z,610.86
2023-09-21T00:26:16.889Z,610.90
2023-09-21T00:26:36.889Z,611.03
2023-09-21T00:26:46.886Z,610.91
2023-09-21T00:26:56.909Z,610.98
2023-09-21T00:27:06.910Z,610.92
2023-09-21T00:27:16.909Z,610.99
2023-09-21T00:27:26.875Z,611.04
2023-09-21T00:27:36.869Z,611.04
2023-09-21T00:27:46.872Z,611.09
2023-09-21T00:27:57.392Z,611.08
2023-09-21T00:28:06.884Z,611.06
2023-09-21T00:28:16.873Z,611.15
2023-09-21T00:28:26.902Z,611.07
2023-09-21T00:28:36.880Z,611.07
2023-09-21T00:28:46.882Z,611.18
2023-09-21T00:29:06.880Z,611.26
2023-09-21T00:29:16.878Z,611.32
2023-09-21T00:29:26.893Z,611.29
2023-09-21T00:29:36.912Z,611.35
2023-09-21T00:29:46.910Z,611.23
2023-09-21T00:29:56.934Z,611.27
2023-09-21T00:30:06.957Z,611.17
2023-09-21T00:30:16.935Z,611.31
2023-09-21T00:30:26.889Z,611.36
2023-09-21T00:30:36.905Z,611.39
2023-09-21T00:30:46.882Z,611.25
2023-09-21T00:30:56.892Z,611.30
2023-09-21T00:31:06.887Z,611.41
2023-09-21T00:31:16.934Z,611.50
2023-09-21T00:31:26.889Z,611.34
2023-09-21T00:31:36.910Z,611.37
2023-09-21T00:31:46.946Z,611.46
2023-09-21T00:31:56.961Z,611.50
2023-09-21T00:32:06.890Z,611.52
2023-09-21T00:32:16.900Z,611.54
2023-09-21T00:32:26.953Z,611.55
2023-09-21T00:32:36.916Z,611.58
2023-09-21T00:32:46.943Z,611.59
2023-09-21T00:32:56.989Z,611.67
2023-09-21T00:33:06.962Z,611.65
2023-09-21T00:33:27.023Z,611.70
2023-09-21T00:33:36.983Z,611.71
2023-09-21T00:33:46.938Z,611.77
2023-09-21T00:33:56.892Z,611.66
2023-09-21T00:34:06.906Z,611.76
2023-09-21T00:34:16.896Z,611.91
2023-09-21T00:34:26.895Z,611.81
2023-09-21T00:34:36.894Z,611.85
2023-09-21T00:34:46.901Z,611.90
2023-09-21T00:34:56.905Z,611.88
2023-09-21T00:35:06.902Z,611.94
2023-09-21T00:35:16.913Z,611.95
2023-09-21T00:35:26.898Z,611.94
2023-09-21T00:35:36.931Z,611.96
2023-09-21T00:35:46.925Z,612.04
2023-09-21T00:35:56.928Z,612.09
2023-09-21T00:36:06.970Z,612.18
2023-09-21T00:36:16.937Z,612.15
2023-09-21T00:36:26.909Z,612.16
2023-09-21T00:36:36.905Z,612.17
2023-09-21T00:36:46.925Z,612.17
2023-09-21T00:36:56.912Z,612.23
2023-09-21T00:37:06.919Z,612.23
2023-09-21T00:37:16.909Z,612.32
2023-09-21T00:37:26.911Z,612.32
2023-09-21T00:37:36.910Z,612.27
2023-09-21T00:37:46.923Z,612.31
2023-09-21T00:38:06.921Z,612.39
2023-09-21T00:38:16.932Z,612.47
2023-09-21T00:38:26.921Z,612.43
2023-09-21T00:38:36.964Z,612.39
2023-09-21T00:38:47.033Z,612.42
2023-09-21T00:38:57.016Z,612.53
2023-09-21T00:39:07.002Z,612.56
2023-09-21T00:39:16.985Z,612.59
2023-09-21T00:39:26.963Z,612.60
2023-09-21T00:39:36.999Z,612.62
2023-09-21T00:39:47.059Z,612.64
2023-09-21T00:40:06.934Z,612.75
2023-09-21T00:40:16.926Z,612.73
2023-09-21T00:40:26.924Z,612.72
2023-09-21T00:40:36.930Z,612.88
2023-09-21T00:40:46.927Z,612.89
2023-09-21T00:40:56.932Z,612.91
2023-09-21T00:41:06.955Z,612.99
2023-09-21T00:41:16.938Z,612.90
2023-09-21T00:41:26.925Z,612.95
2023-09-21T00:41:36.957Z,613.05
2023-09-21T00:41:46.941Z,613.05
2023-09-21T00:42:07.009Z,613.05
2023-09-21T00:42:16.985Z,613.04
2023-09-21T00:42:26.932Z,613.04
2023-09-21T00:42:36.945Z,613.09
2023-09-21T00:42:46.937Z,613.14
2023-09-21T00:42:56.971Z,613.18
2023-09-21T00:43:06.931Z,613.25
2023-09-21T00:43:16.938Z,613.24
2023-09-21T00:43:26.950Z,613.24
2023-09-21T00:43:46.939Z,613.22
2023-09-21T00:43:56.949Z,613.33
2023-09-21T00:44:06.935Z,613.42
2023-09-21T00:44:16.945Z,613.43
2023-09-21T00:44:26.945Z,613.39
2023-09-21T00:44:36.974Z,613.47
2023-09-21T00:44:46.956Z,613.45
2023-09-21T00:44:56.996Z,613.46
2023-09-21T00:45:06.982Z,613.46
2023-09-21T00:45:16.994Z,613.41
2023-09-21T00:45:26.946Z,613.49
2023-09-21T00:45:36.948Z,613.63
2023-09-21T00:45:46.987Z,613.53
2023-09-21T00:45:56.984Z,613.63
2023-09-21T00:46:07.044Z,613.63
2023-09-21T00:46:26.991Z,613.70
2023-09-21T00:46:36.975Z,613.68
2023-09-21T00:46:46.961Z,613.72
2023-09-21T00:46:56.967Z,613.66
2023-09-21T00:47:06.961Z,613.71
2023-09-21T00:47:16.959Z,613.66
2023-09-21T00:47:27.016Z,613.66
2023-09-21T00:47:37.061Z,613.72
2023-09-21T00:47:47.000Z,613.75
2023-09-21T00:47:57.040Z,613.78
2023-09-21T00:48:07.042Z,613.69
2023-09-21T00:48:16.992Z,613.86
2023-09-21T00:48:27.436Z,613.93
2023-09-21T00:48:37.001Z,613.94
2023-09-21T00:48:47.207Z,613.92
2023-09-21T00:48:57.049Z,614.00
2023-09-21T00:49:16.966Z,614.00
2023-09-21T00:49:26.967Z,613.97
2023-09-21T00:49:36.967Z,613.97
2023-09-21T00:49:46.966Z,614.00
2023-09-21T00:49:56.976Z,614.07
2023-09-21T00:50:06.962Z,614.10
2023-09-21T00:50:16.983Z,614.07
2023-09-21T00:50:26.990Z,613.99
2023-09-21T00:50:37.010Z,614.04
2023-09-21T00:50:47.001Z,614.01
2023-09-21T00:50:57.002Z,614.06
2023-09-21T00:51:07.090Z,614.07
2023-09-21T00:51:17.014Z,614.08
2023-09-21T00:51:26.979Z,614.11
2023-09-21T00:51:46.980Z,614.11
2023-09-21T00:51:56.979Z,614.19
2023-09-21T00:52:07.011Z,614.11
2023-09-21T00:52:16.976Z,614.12
2023-09-21T00:52:26.977Z,614.09
2023-09-21T00:52:36.985Z,614.05
2023-09-21T00:52:46.981Z,614.11
2023-09-21T00:52:56.990Z,614.07
2023-09-21T00:53:16.982Z,614.16
2023-09-21T00:53:26.977Z,614.09
2023-09-21T00:53:37.050Z,614.14
2023-09-21T00:53:47.215Z,614.11
2023-09-21T00:53:57.034Z,614.10
2023-09-21T00:54:07.039Z,614.00
2023-09-21T00:54:17.021Z,614.07
2023-09-21T00:54:26.982Z,614.07
2023-09-21T00:54:36.992Z,613.94
2023-09-21T00:54:46.991Z,614.06
2023-09-21T00:54:56.993Z,613.98
2023-09-21T00:55:06.993Z,614.01
2023-09-21T00:55:16.994Z,614.08
2023-09-21T00:55:26.989Z,613.96
2023-09-21T00:55:36.994Z,613.98
2023-09-21T00:55:56.988Z,614.05
2023-09-21T00:56:06.994Z,613.97
2023-09-21T00:56:16.993Z,614.11
2023-09-21T00:56:26.997Z,614.06
2023-09-21T00:56:37.044Z,614.16
2023-09-21T00:56:47.025Z,614.19
2023-09-21T00:56:57.047Z,614.11
2023-09-21T00:57:07.035Z,614.04
2023-09-21T00:57:17.035Z,614.08
2023-09-21T00:57:27.001Z,614.11
2023-09-21T00:57:37.000Z,614.05
2023-09-21T00:57:47.001Z,614.06
2023-09-21T00:57:57.020Z,614.06
2023-09-21T00:58:07.003Z,614.07
2023-09-21T00:58:17.005Z,614.05
2023-09-21T00:58:27.075Z,614.09
2023-09-21T00:58:36.995Z,614.07
2023-09-21T00:58:47.266Z,614.17
2023-09-21T00:58:57.003Z,614.13
2023-09-21T00:59:17.021Z,614.13
2023-09-21T00:59:27.007Z,614.19
2023-09-21T00:59:37.035Z,614.13
2023-09-21T00:59:47.071Z,614.13
2023-09-21T00:59:57.073Z,614.10
2023-09-21T01:00:07.037Z,614.17
2023-09-21T01:00:17.046Z,614.19
2023-09-21T01:00:27.006Z,614.09
2023-09-21T01:00:37.022Z,614.18
2023-09-21T01:00:47.022Z,614.25
2023-09-21T01:00:57.006Z,614.32
2023-09-21T01:01:07.093Z,614.23
2023-09-21T01:01:17.021Z,614.29
2023-09-21T01:01:27.026Z,614.24
2023-09-21T01:01:37.080Z,614.20
2023-09-21T01:01:47.050Z,614.33
2023-09-21T01:01:57.098Z,614.33
2023-09-21T01:02:07.022Z,614.27
2023-09-21T01:02:17.026Z,614.25
2023-09-21T01:02:27.127Z,614.25
2023-09-21T01:02:37.117Z,614.35
2023-09-21T01:02:47.160Z,614.27
2023-09-21T01:02:57.137Z,614.35
2023-09-21T01:03:07.191Z,614.29
2023-09-21T01:03:17.125Z,614.36
2023-09-21T01:03:27.099Z,614.35
2023-09-21T01:03:37.120Z,614.42
2023-09-21T01:03:47.220Z,614.42
2023-09-21T01:03:57.326Z,614.37
2023-09-21T01:04:17.259Z,614.47
2023-09-21T01:04:27.154Z,614.57
2023-09-21T01:04:37.119Z,614.53
2023-09-21T01:04:47.034Z,614.50
2023-09-21T01:04:57.047Z,614.55
2023-09-21T01:05:07.032Z,614.55
2023-09-21T01:05:17.029Z,614.53
2023-09-21T01:05:27.031Z,614.64
2023-09-21T01:05:37.077Z,614.63
2023-09-21T01:05:47.145Z,614.64
2023-09-21T01:05:57.130Z,614.64
2023-09-21T01:06:07.081Z,614.79
2023-09-21T01:06:17.091Z,614.71
2023-09-21T01:06:27.038Z,614.73
2023-09-21T01:06:37.040Z,614.87
2023-09-21T01:06:47.050Z,614.87
2023-09-21T01:06:57.042Z,614.84
2023-09-21T01:07:07.038Z,614.99
2023-09-21T01:07:17.040Z,614.96
2023-09-21T01:07:27.043Z,614.86
2023-09-21T01:07:37.048Z,614.94
2023-09-21T01:07:47.075Z,614.84
2023-09-21T01:07:57.049Z,614.92
2023-09-21T01:08:07.052Z,614.80
2023-09-21T01:08:27.042Z,614.81
2023-09-21T01:08:37.089Z,614.87
2023-09-21T01:08:47.164Z,614.88
2023-09-21T01:08:57.076Z,614.83
2023-09-21T01:09:07.058Z,614.91
2023-09-21T01:09:17.087Z,614.87
2023-09-21T01:09:27.086Z,614.93
2023-09-21T01:09:37.077Z,614.93
2023-09-21T01:09:47.065Z,614.93
2023-09-21T01:10:07.055Z,614.84
2023-09-21T01:10:17.057Z,614.86
2023-09-21T01:10:27.056Z,614.90
2023-09-21T01:10:37.055Z,614.84
2023-09-21T01:10:47.059Z,614.94
2023-09-21T01:10:57.057Z,614.87
2023-09-21T01:11:07.057Z,614.89
2023-09-21T01:11:17.059Z,614.93
2023-09-21T01:11:27.076Z,614.87
2023-09-21T01:11:37.078Z,614.96
2023-09-21T01:11:47.081Z,614.91
2023-09-21T01:11:57.073Z,615.00
2023-09-21T01:12:07.083Z,614.97
2023-09-21T01:12:17.099Z,614.92
2023-09-21T01:12:27.073Z,615.07
2023-09-21T01:12:37.056Z,615.05
2023-09-21T01:12:47.057Z,615.14
2023-09-21T01:12:57.086Z,615.09
2023-09-21T01:13:07.067Z,615.03
2023-09-21T01:13:17.100Z,615.11
2023-09-21T01:13:27.076Z,615.09
2023-09-21T01:13:37.080Z,615.10
2023-09-21T01:13:47.067Z,615.07
2023-09-21T01:14:07.071Z,615.10
2023-09-21T01:14:17.071Z,615.09
2023-09-21T01:14:27.081Z,615.10
2023-09-21T01:14:37.105Z,615.15
2023-09-21T01:14:47.086Z,615.13
2023-09-21T01:14:57.162Z,615.24
2023-09-21T01:15:07.134Z,615.29
2023-09-21T01:15:27.075Z,615.24
2023-09-21T01:15:37.074Z,615.29
2023-09-21T01:15:47.107Z,615.26
2023-09-21T01:15:57.100Z,615.34
2023-09-21T01:16:07.146Z,615.27
2023-09-21T01:16:17.267Z,615.27
2023-09-21T01:16:27.127Z,615.21
2023-09-21T01:16:37.104Z,615.25
2023-09-21T01:16:47.082Z,615.31
2023-09-21T01:16:57.094Z,615.34
2023-09-21T01:17:07.074Z,615.25
2023-09-21T01:17:17.094Z,615.33
2023-09-21T01:17:27.114Z,615.32
2023-09-21T01:17:37.152Z,615.34
2023-09-21T01:17:47.174Z,615.37
2023-09-21T01:17:57.188Z,615.43
2023-09-21T01:18:07.137Z,615.36
2023-09-21T01:18:17.141Z,615.40
2023-09-21T01:18:27.181Z,615.36
2023-09-21T01:18:37.131Z,615.47
2023-09-21T01:18:47.455Z,615.47
2023-09-21T01:18:57.129Z,615.52
2023-09-21T01:19:07.081Z,615.52
2023-09-21T01:19:17.094Z,615.47
2023-09-21T01:19:37.084Z,615.64
2023-09-21T01:19:47.133Z,615.66
2023-09-21T01:19:57.095Z,615.61
2023-09-21T01:20:07.089Z,615.63
2023-09-21T01:20:17.091Z,615.73
2023-09-21T01:20:27.089Z,615.65
2023-09-21T01:20:37.118Z,615.64
2023-09-21T01:20:47.135Z,615.54
2023-09-21T01:20:57.136Z,615.56
2023-09-21T01:21:07.140Z,615.55
2023-09-21T01:21:17.133Z,615.59
2023-09-21T01:21:27.089Z,615.57
2023-09-21T01:21:37.127Z,615.56
2023-09-21T01:21:47.096Z,615.59
2023-09-21T01:21:57.146Z,615.66
2023-09-21T01:22:07.096Z,615.72
2023-09-21T01:22:17.095Z,615.66
2023-09-21T01:22:27.115Z,615.74
2023-09-21T01:22:37.103Z,615.75
2023-09-21T01:22:47.104Z,615.76
2023-09-21T01:23:07.100Z,615.72
2023-09-21T01:23:17.105Z,615.77
2023-09-21T01:23:27.102Z,615.76
2023-09-21T01:23:37.152Z,615.74
2023-09-21T01:23:47.658Z,615.88
2023-09-21T01:23:57.193Z,615.75
2023-09-21T01:24:07.179Z,615.76
2023-09-21T01:24:17.166Z,615.77
2023-09-21T01:24:37.115Z,615.79
2023-09-21T01:24:47.107Z,615.83
2023-09-21T01:24:57.137Z,615.88
2023-09-21T01:25:07.107Z,615.86
2023-09-21T01:25:17.117Z,615.92
2023-09-21T01:25:27.115Z,615.82
2023-09-21T01:25:37.118Z,615.80
2023-09-21T01:25:47.108Z,615.85
2023-09-21T01:25:57.116Z,615.76
2023-09-21T01:26:07.128Z,615.75
2023-09-21T01:26:17.134Z,615.84
2023-09-21T01:26:27.126Z,615.81
2023-09-21T01:26:47.162Z,615.68
2023-09-21T01:26:57.145Z,615.77
2023-09-21T01:27:07.144Z,615.75
2023-09-21T01:27:17.151Z,615.83
2023-09-21T01:27:27.119Z,615.79
2023-09-21T01:27:37.118Z,615.78
2023-09-21T01:27:47.115Z,615.75
2023-09-21T01:27:57.128Z,615.87
2023-09-21T01:28:07.125Z,615.88
2023-09-21T01:28:17.125Z,615.91
2023-09-21T01:28:27.126Z,615.95
2023-09-21T01:28:37.123Z,615.97
2023-09-21T01:28:47.121Z,616.04
2023-09-21T01:28:57.127Z,616.04
2023-09-21T01:29:07.125Z,616.01
2023-09-21T01:29:17.133Z,615.92
2023-09-21T01:29:27.160Z,615.92
2023-09-21T01:29:37.195Z,615.87
2023-09-21T01:29:47.183Z,615.91
2023-09-21T01:29:57.157Z,615.87
2023-09-21T01:30:07.151Z,615.97
2023-09-21T01:30:17.196Z,615.94
2023-09-21T01:30:37.145Z,616.03
2023-09-21T01:30:47.133Z,615.98
2023-09-21T01:30:57.169Z,616.06
2023-09-21T01:31:07.240Z,616.03
2023-09-21T01:31:17.189Z,616.14
2023-09-21T01:31:27.186Z,616.08
2023-09-21T01:31:37.180Z,616.06
2023-09-21T01:31:47.208Z,616.17
2023-09-21T01:31:57.151Z,616.12
2023-09-21T01:32:07.143Z,616.16
2023-09-21T01:32:17.149Z,616.20
2023-09-21T01:32:27.182Z,616.11
2023-09-21T01:32:37.189Z,616.13
2023-09-21T01:32:47.317Z,616.14
2023-09-21T01:32:57.268Z,616.23
2023-09-21T01:33:07.233Z,616.31
2023-09-21T01:33:17.295Z,616.35
2023-09-21T01:33:27.269Z,616.39
2023-09-21T01:33:37.313Z,616.57
2023-09-21T01:33:57.155Z,616.45
2023-09-21T01:34:07.146Z,616.38
2023-09-21T01:34:17.149Z,616.45
2023-09-21T01:34:27.155Z,616.43
2023-09-21T01:34:37.163Z,616.51
2023-09-21T01:34:47.154Z,616.51
2023-09-21T01:34:57.148Z,616.50
2023-09-21T01:35:07.159Z,616.39
2023-09-21T01:35:17.174Z,616.50
2023-09-21T01:35:27.155Z,616.44
2023-09-21T01:35:37.159Z,616.34
2023-09-21T01:35:47.286Z,616.46
2023-09-21T01:35:57.231Z,616.41
2023-09-21T01:36:07.242Z,616.36
2023-09-21T01:36:17.444Z,616.35
2023-09-21T01:36:27.169Z,616.42
2023-09-21T01:36:37.176Z,616.29
2023-09-21T01:36:57.162Z,616.36
2023-09-21T01:37:07.169Z,616.48
2023-09-21T01:37:17.187Z,616.36
2023-09-21T01:37:27.159Z,616.32
2023-09-21T01:37:37.173Z,616.43
2023-09-21T01:37:47.173Z,616.38
2023-09-21T01:37:57.176Z,616.38
2023-09-21T01:38:07.173Z,616.32
2023-09-21T01:38:17.167Z,616.28
2023-09-21T01:38:27.197Z,616.38
2023-09-21T01:38:48.110Z,616.47
2023-09-21T01:38:57.228Z,616.41
2023-09-21T01:39:07.245Z,616.47
2023-09-21T01:39:17.220Z,616.40
2023-09-21T01:39:27.204Z,616.37
2023-09-21T01:39:37.170Z,616.41
2023-09-21T01:39:57.183Z,616.42
2023-09-21T01:40:07.176Z,616.46
2023-09-21T01:40:17.186Z,616.51
2023-09-21T01:40:27.189Z,616.46
2023-09-21T01:40:37.180Z,616.57
2023-09-21T01:40:47.185Z,616.58
2023-09-21T01:40:57.181Z,616.52
2023-09-21T01:41:07.181Z,616.57
2023-09-21T01:41:17.594Z,616.58
2023-09-21T01:41:27.179Z,616.65
2023-09-21T01:41:37.252Z,616.58
2023-09-21T01:41:47.221Z,616.68
2023-09-21T01:41:57.223Z,616.61
2023-09-21T01:42:07.219Z,616.58
2023-09-21T01:42:17.204Z,616.71
2023-09-21T01:42:27.188Z,616.70
2023-09-21T01:42:37.194Z,616.71
2023-09-21T01:42:47.188Z,616.64
2023-09-21T01:42:57.187Z,616.70
2023-09-21T01:43:07.204Z,616.70
2023-09-21T01:43:17.192Z,616.76
2023-09-21T01:43:27.220Z,616.73
2023-09-21T01:43:37.191Z,616.71
2023-09-21T01:43:47.201Z,616.71
2023-09-21T01:43:57.196Z,616.69
2023-09-21T01:44:07.191Z,616.79
2023-09-21T01:44:17.191Z,616.75
2023-09-21T01:44:37.224Z,616.78
2023-09-21T01:44:47.251Z,616.78
2023-09-21T01:44:57.245Z,616.72
2023-09-21T01:45:07.249Z,616.81
2023-09-21T01:45:17.235Z,616.66
2023-09-21T01:45:27.240Z,616.68
2023-09-21T01:45:37.936Z,616.67
2023-09-21T01:45:47.221Z,616.63
2023-09-21T01:45:57.275Z,616.67
2023-09-21T01:46:07.230Z,616.65
2023-09-21T01:46:17.203Z,616.62
2023-09-21T01:46:37.219Z,616.66
2023-09-21T01:46:47.203Z,616.67
2023-09-21T01:46:57.210Z,616.64
2023-09-21T01:47:07.201Z,616.67
2023-09-21T01:47:17.220Z,616.74
2023-09-21T01:47:27.264Z,616.71
2023-09-21T01:47:37.253Z,616.76
2023-09-21T01:47:47.271Z,616.74
2023-09-21T01:47:57.332Z,616.73
2023-09-21T01:48:07.270Z,616.80
2023-09-21T01:48:17.268Z,616.83
2023-09-21T01:48:27.267Z,616.81
2023-09-21T01:48:47.667Z,616.74
2023-09-21T01:48:57.241Z,616.71
2023-09-21T01:49:07.219Z,616.87
2023-09-21T01:49:17.219Z,616.81
2023-09-21T01:49:27.213Z,616.83
2023-09-21T01:49:37.217Z,616.93
2023-09-21T01:49:47.215Z,616.76
2023-09-21T01:49:57.221Z,616.86
2023-09-21T01:50:07.222Z,616.80
2023-09-21T01:50:17.216Z,616.87
2023-09-21T01:50:27.241Z,616.83
2023-09-21T01:50:37.274Z,616.98
2023-09-21T01:50:47.299Z,616.86
2023-09-21T01:50:57.300Z,616.95
2023-09-21T01:51:07.290Z,616.89
2023-09-21T01:51:27.222Z,616.87
2023-09-21T01:51:37.234Z,616.92
2023-09-21T01:51:47.222Z,616.90
2023-09-21T01:51:57.249Z,616.82
2023-09-21T01:52:07.219Z,616.89
2023-09-21T01:52:17.225Z,616.95
2023-09-21T01:52:27.298Z,616.95
2023-09-21T01:52:37.220Z,617.07
2023-09-21T01:52:47.298Z,617.02
2023-09-21T01:52:57.226Z,617.00
2023-09-21T01:53:07.234Z,617.06
2023-09-21T01:53:17.227Z,617.04
2023-09-21T01:53:37.284Z,617.04
2023-09-21T01:53:47.292Z,617.05
2023-09-21T01:53:57.272Z,617.09
2023-09-21T01:54:07.270Z,617.03
2023-09-21T01:54:17.251Z,617.09
2023-09-21T01:54:27.240Z,617.08
2023-09-21T01:54:37.233Z,617.06
2023-09-21T01:54:47.229Z,617.03
2023-09-21T01:54:57.232Z,617.11
2023-09-21T01:55:07.236Z,617.09
2023-09-21T01:55:17.229Z,617.06
2023-09-21T01:55:37.231Z,617.13
2023-09-21T01:55:47.253Z,617.19
2023-09-21T01:55:57.234Z,617.13
2023-09-21T01:56:07.275Z,617.05
2023-09-21T01:56:17.244Z,617.07
2023-09-21T01:56:27.237Z,617.02
2023-09-21T01:56:37.290Z,617.09
2023-09-21T01:56:47.264Z,617.06
2023-09-21T01:56:57.279Z,617.05
2023-09-21T01:57:07.342Z,617.10
2023-09-21T01:57:17.299Z,617.06
2023-09-21T01:57:27.241Z,617.14
2023-09-21T01:57:47.246Z,617.21
2023-09-21T01:57:57.242Z,617.19
2023-09-21T01:58:07.243Z,617.29
2023-09-21T01:58:17.258Z,617.35
2023-09-21T01:58:27.251Z,617.39
2023-09-21T01:58:37.255Z,617.39
2023-09-21T01:58:47.256Z,617.53
2023-09-21T01:58:57.246Z,617.52
2023-09-21T01:59:07.261Z,617.60
2023-09-21T01:59:17.287Z,617.66
2023-09-21T01:59:27.298Z,617.58
2023-09-21T01:59:47.338Z,617.69
2023-09-21T01:59:57.349Z,617.63
2023-09-21T02:00:07.307Z,617.60
2023-09-21T02:00:17.341Z,617.59
2023-09-21T02:00:27.314Z,617.51
2023-09-21T02:00:37.363Z,617.56
2023-09-21T02:00:47.370Z,617.52
2023-09-21T02:00:57.310Z,617.50
2023-09-21T02:01:07.267Z,617.67
2023-09-21T02:01:17.269Z,617.57
2023-09-21T02:01:27.274Z,617.66
2023-09-21T02:01:37.322Z,617.62
2023-09-21T02:01:47.258Z,617.60
2023-09-21T02:01:57.282Z,617.63
2023-09-21T02:02:07.327Z,617.71
2023-09-21T02:02:17.303Z,617.70
2023-09-21T02:02:27.327Z,617.67
2023-09-21T02:02:37.395Z,617.71
2023-09-21T02:02:47.467Z,617.68
2023-09-21T02:02:57.366Z,617.75
2023-09-21T02:03:07.453Z,617.72
2023-09-21T02:03:17.432Z,617.62
2023-09-21T02:03:27.354Z,617.69
2023-09-21T02:03:37.459Z,617.71
2023-09-21T02:03:47.722Z,617.75
2023-09-21T02:03:57.368Z,617.70
2023-09-21T02:04:07.332Z,617.59
2023-09-21T02:04:17.351Z,617.67
2023-09-21T02:04:27.273Z,617.59
2023-09-21T02:04:47.278Z,617.66
2023-09-21T02:04:57.286Z,617.64
2023-09-21T02:05:07.276Z,617.74
2023-09-21T02:05:17.283Z,617.71
2023-09-21T02:05:27.270Z,617.74
2023-09-21T02:05:37.309Z,617.76
2023-09-21T02:05:47.306Z,617.72
2023-09-21T02:05:57.301Z,617.81
2023-09-21T02:06:07.314Z,617.71
2023-09-21T02:06:27.277Z,617.74
2023-09-21T02:06:37.286Z,617.78
2023-09-21T02:06:47.274Z,617.90
2023-09-21T02:06:58.023Z,617.82
2023-09-21T02:07:07.287Z,617.81
2023-09-21T02:07:17.278Z,617.76
2023-09-21T02:07:27.280Z,617.69
2023-09-21T02:07:37.291Z,617.74
2023-09-21T02:07:47.287Z,617.64
2023-09-21T02:07:57.293Z,617.68
2023-09-21T02:08:07.289Z,617.55
2023-09-21T02:08:17.377Z,617.66
2023-09-21T02:08:27.432Z,617.71
2023-09-21T02:08:37.392Z,617.75
2023-09-21T02:08:47.605Z,617.78
2023-09-21T02:09:07.345Z,617.81
2023-09-21T02:09:17.439Z,617.74
2023-09-21T02:09:27.389Z,617.91
2023-09-21T02:09:37.292Z,617.91
2023-09-21T02:09:47.331Z,617.85
2023-09-21T02:09:57.320Z,617.86
2023-09-21T02:10:07.296Z,617.73
2023-09-21T02:10:17.298Z,617.81
2023-09-21T02:10:37.301Z,617.82
2023-09-21T02:10:47.298Z,617.91
2023-09-21T02:10:57.316Z,617.85
2023-09-21T02:11:07.304Z,617.92
2023-09-21T02:11:17.324Z,617.95
2023-09-21T02:11:27.303Z,617.97
2023-09-21T02:11:37.334Z,618.06
2023-09-21T02:11:47.339Z,618.06
2023-09-21T02:11:57.349Z,618.02
2023-09-21T02:12:07.350Z,618.00
2023-09-21T02:12:27.306Z,618.08
2023-09-21T02:12:37.315Z,618.00
2023-09-21T02:12:47.305Z,618.04
2023-09-21T02:12:57.312Z,618.11
2023-09-21T02:13:07.309Z,618.09
2023-09-21T02:13:17.318Z,618.05
2023-09-21T02:13:27.313Z,618.16